Time;durP1;ratioP1;P1;durP2;ratioP2;P2;SDS_P1;SDS_P2;PMS_P1;PMS_P2;Temp;Humidity;BMP_temperature;BMP_pressure;BME280_temperature;BME280_humidity;BME280_pressure;Samples;Min_cycle;Max_cycle;Signal;HPM_P1;HPM_P2
2023/01/19 00:00:51;;;;;;;1.17;1.00;;;;;;;-0.03;47.79;90668.41;4981998;28;20070;-78
2023/01/19 00:03:17;;;;;;;1.13;1.00;;;;;;;-0.01;48.34;90668.16;4992036;28;20519;-78
2023/01/19 00:09:37;;;;;;;1.48;1.13;;;;;;;0.15;45.63;90676.56;4968800;28;20141;-78
2023/01/19 00:12:03;;;;;;;1.45;1.05;;;;;;;0.07;46.46;90675.31;4972340;28;20034;-78
2023/01/19 00:14:29;;;;;;;1.20;1.10;;;;;;;-0.01;47.54;90676.63;4970755;28;20054;-78
2023/01/19 00:16:55;;;;;;;1.10;1.00;;;;;;;-0.04;47.18;90684.13;4971998;28;20031;-78
2023/01/19 00:19:21;;;;;;;2.55;1.25;;;;;;;-0.04;45.62;90679.00;4972611;28;20038;-78
2023/01/19 00:21:46;;;;;;;1.63;1.20;;;;;;;-0.09;46.72;90694.44;4970921;28;20027;-78
2023/01/19 00:24:12;;;;;;;1.40;1.08;;;;;;;0.08;44.12;90696.69;4987324;28;20097;-78
2023/01/19 00:26:41;;;;;;;2.60;1.23;;;;;;;0.09;44.49;90683.56;4971621;28;20035;-78
2023/01/19 00:29:10;;;;;;;1.10;1.00;;;;;;;0.05;44.49;90687.69;4969712;28;20089;-78
2023/01/19 00:31:36;;;;;;;1.85;1.10;;;;;;;0.04;44.95;90698.22;4972166;28;20121;-78
2023/01/19 00:34:02;;;;;;;1.02;0.90;;;;;;;0.11;45.13;90696.94;4951046;28;20137;-79
2023/01/19 00:36:28;;;;;;;2.70;1.40;;;;;;;0.23;43.53;90698.41;4959440;28;20093;-78
2023/01/19 00:38:54;;;;;;;1.00;0.90;;;;;;;0.18;44.45;90701.75;4970702;28;20047;-79
2023/01/19 00:42:38;;;;;;;2.78;1.42;;;;;;;0.26;42.08;90697.84;4988435;28;20034;-78
2023/01/19 00:44:05;;;;;;;1.33;1.08;;;;;;;0.29;42.74;90682.63;4983307;28;20613;-78
2023/01/19 00:46:30;;;;;;;1.58;1.23;;;;;;;0.21;43.56;90690.94;4969851;28;20761;-78
2023/01/19 00:48:56;;;;;;;1.45;1.17;;;;;;;0.26;43.00;90687.56;4969804;28;20063;-78
2023/01/19 00:51:22;;;;;;;2.83;1.17;;;;;;;0.34;42.25;90699.88;4971831;28;20548;-78
2023/01/19 00:53:47;;;;;;;1.85;1.25;;;;;;;0.26;43.55;90692.72;4970666;28;20038;-79
2023/01/19 00:56:13;;;;;;;2.15;1.20;;;;;;;0.22;42.15;90692.47;4972051;28;20050;-79
2023/01/19 00:58:38;;;;;;;1.75;1.00;;;;;;;0.33;42.39;90693.94;4971626;28;20122;-78
2023/01/19 01:01:04;;;;;;;1.80;1.20;;;;;;;0.24;43.35;90695.53;4970770;28;20035;-79
2023/01/19 01:03:31;;;;;;;1.13;1.02;;;;;;;0.30;42.28;90693.72;4971419;28;20481;-79
2023/01/19 01:05:58;;;;;;;1.10;1.00;;;;;;;0.16;42.88;90689.16;4986536;28;20053;-78
2023/01/19 01:08:23;;;;;;;1.13;1.02;;;;;;;0.27;39.68;90699.38;4970912;28;20443;-78
2023/01/19 01:10:49;;;;;;;1.38;1.05;;;;;;;0.19;42.17;90703.31;4958550;28;20047;-78
2023/01/19 01:13:15;;;;;;;1.42;1.10;;;;;;;0.28;41.78;90706.09;4952353;28;20043;-79
2023/01/19 01:15:41;;;;;;;1.25;1.10;;;;;;;0.30;41.68;90704.03;4971595;28;20039;-78
2023/01/19 01:18:07;;;;;;;1.25;1.13;;;;;;;0.25;42.43;90704.81;4971169;28;20035;-78
2023/01/19 01:20:35;;;;;;;1.10;1.00;;;;;;;0.17;42.09;90706.13;4970762;28;20081;-78
2023/01/19 01:23:02;;;;;;;1.25;1.10;;;;;;;0.36;40.58;90705.50;4973400;28;20057;-78
2023/01/19 01:25:29;;;;;;;1.58;1.20;;;;;;;0.27;41.68;90709.69;4975856;28;20035;-78
2023/01/19 01:27:55;;;;;;;2.33;1.27;;;;;;;0.21;42.18;90711.53;4973957;28;20023;-78
2023/01/19 01:30:22;;;;;;;1.67;1.15;;;;;;;0.34;40.90;90703.22;4974738;28;20041;-78
2023/01/19 01:32:48;;;;;;;2.38;1.48;;;;;;;0.27;41.71;90710.47;4974234;28;20038;-79
2023/01/19 01:35:14;;;;;;;2.50;1.20;;;;;;;0.20;41.62;90705.63;4975100;28;20035;-78
2023/01/19 01:37:41;;;;;;;1.27;1.10;;;;;;;0.43;38.61;90675.09;4975172;28;20035;-79
2023/01/19 01:40:11;;;;;;;1.30;1.10;;;;;;;0.39;40.03;90710.13;4975145;28;20572;-78
2023/01/19 01:42:37;;;;;;;2.15;1.35;;;;;;;0.35;40.43;90693.69;4974455;28;20039;-78
2023/01/19 01:45:14;;;;;;;1.70;1.10;;;;;;;0.42;38.86;90689.00;4973986;28;20060;-78
2023/01/19 01:47:46;;;;;;;2.75;1.45;;;;;;;0.26;41.55;90696.06;4973881;28;20046;-78
2023/01/19 01:50:21;;;;;;;1.63;1.20;;;;;;;0.39;40.92;90708.31;4973223;28;20042;-79
2023/01/19 01:52:59;;;;;;;3.13;1.20;;;;;;;0.54;40.48;90709.25;4971075;28;20233;-78
2023/01/19 01:55:27;;;;;;;1.80;1.30;;;;;;;0.36;41.17;90697.78;4955729;28;20572;-78
2023/01/19 01:58:01;;;;;;;1.45;1.10;;;;;;;0.27;40.50;90705.31;4974588;28;20025;-77
2023/01/19 02:02:49;;;;;;;1.58;1.05;;;;;;;0.34;38.69;90712.75;4974565;28;20038;-78
2023/01/19 02:03:14;;;;;;;1.58;1.10;;;;;;;0.28;38.19;90708.66;4974822;28;20549;-78
2023/01/19 02:05:41;;;;;;;3.83;1.40;;;;;;;0.27;37.89;90704.53;4974580;28;20169;-79
2023/01/19 02:13:45;;;;;;;1.33;1.08;;;;;;;0.33;39.81;90718.91;4974245;28;20417;-78
2023/01/19 02:16:12;;;;;;;1.88;1.20;;;;;;;0.29;39.56;90720.47;4973024;28;20038;-78
2023/01/19 02:18:39;;;;;;;1.58;1.20;;;;;;;0.27;40.29;90714.81;4973515;28;20073;-78
2023/01/19 02:21:23;;;;;;;4.15;1.30;;;;;;;0.26;40.36;90710.72;4973288;28;20093;-78
2023/01/19 02:23:50;;;;;;;1.92;1.20;;;;;;;0.15;39.92;90722.88;4973825;28;20531;-78
2023/01/19 02:26:32;;;;;;;2.80;1.48;;;;;;;0.14;39.36;90711.81;4974574;28;20122;-79
2023/01/19 02:28:59;;;;;;;;;;;;;;;0.14;39.84;90732.41;4973521;28;20035;-78
2023/01/19 02:31:27;;;;;;;1.83;1.15;;;;;;;0.10;38.61;90721.09;4973713;28;19914;-78
2023/01/19 02:33:54;;;;;;;2.78;1.42;;;;;;;0.10;39.34;90715.94;4973440;28;20039;-78
2023/01/19 02:36:24;;;;;;;2.10;1.48;;;;;;;0.24;38.15;90723.09;4972958;28;20042;-79
2023/01/19 02:38:54;;;;;;;3.92;1.20;;;;;;;0.25;39.10;90722.03;4973434;28;20034;-78
2023/01/19 02:41:25;;;;;;;2.30;1.40;;;;;;;0.17;37.78;90724.16;4974791;28;20049;-78
2023/01/19 02:43:52;;;;;;;2.60;1.38;;;;;;;0.26;38.30;90721.03;4971595;28;20397;-78
2023/01/19 02:46:17;;;;;;;1.73;1.30;;;;;;;0.11;38.95;90707.22;4974133;28;20551;-78
2023/01/19 02:48:43;;;;;;;2.20;1.38;;;;;;;0.01;39.63;90707.25;4972854;28;20027;-78
2023/01/19 02:51:35;;;;;;;2.00;1.30;;;;;;;-0.10;40.10;90716.06;4972812;28;20062;-79
2023/01/19 02:54:04;;;;;;;2.67;1.60;;;;;;;-0.04;39.19;90715.00;4971260;28;20066;-78
2023/01/19 02:56:45;;;;;;;2.85;1.55;;;;;;;0.03;38.46;90712.16;4970565;28;20038;-79
2023/01/19 02:59:11;;;;;;;3.00;1.40;;;;;;;-0.04;38.54;90699.56;4954608;28;20039;-78
2023/01/19 03:01:53;;;;;;;2.17;1.33;;;;;;;0.05;39.18;90705.69;4970836;28;20093;-78
2023/01/19 03:04:27;;;;;;;;;;;;;;;0.02;39.06;90702.88;4974023;28;20055;-78
2023/01/19 03:07:15;;;;;;;2.33;1.42;;;;;;;0.01;38.34;90693.63;4973699;28;20339;-78
2023/01/19 03:09:54;;;;;;;1.40;1.10;;;;;;;-0.03;37.41;90690.81;4977633;28;20121;-78
2023/01/19 03:12:32;;;;;;;2.30;1.40;;;;;;;-0.04;38.67;90682.31;4973482;28;20043;-78
2023/01/19 03:15:04;;;;;;;2.15;1.33;;;;;;;-0.05;38.45;90687.72;4971929;28;20397;-78
2023/01/19 03:17:30;;;;;;;;;;;;;;;-0.16;38.59;90670.81;4973999;28;20263;-78
2023/01/19 03:19:56;;;;;;;3.70;1.45;;;;;;;-0.14;38.01;90689.31;4973054;28;19918;-78
2023/01/19 03:22:27;;;;;;;1.52;1.13;;;;;;;-0.18;38.34;90673.66;4972446;28;20038;-78
2023/01/19 03:24:58;;;;;;;1.80;1.35;;;;;;;-0.19;39.04;90691.91;4972785;28;20033;-79
2023/01/19 03:27:31;;;;;;;2.42;1.35;;;;;;;-0.16;38.88;90701.66;4972724;28;20039;-77
2023/01/19 03:30:05;;;;;;;2.42;1.40;;;;;;;-0.18;37.79;90681.38;4972697;28;20062;-77
2023/01/19 03:32:36;;;;;;;1.95;1.30;;;;;;;-0.19;38.55;90684.97;4973540;28;20120;-78
2023/01/19 03:35:06;;;;;;;2.55;1.50;;;;;;;-0.22;38.46;90699.13;4972321;28;20493;-79
2023/01/19 03:37:35;;;;;;;2.20;1.50;;;;;;;-0.10;37.63;90698.81;4971061;28;20090;-79
2023/01/19 03:40:00;;;;;;;2.60;1.48;;;;;;;-0.22;37.33;90706.84;4972647;28;20131;-78
2023/01/19 03:42:27;;;;;;;2.35;1.50;;;;;;;-0.16;37.21;90702.44;4972759;28;20117;-77
2023/01/19 03:44:55;;;;;;;2.20;1.40;;;;;;;0.05;37.17;90697.22;4973273;28;20405;-77
2023/01/19 03:47:22;;;;;;;1.77;1.30;;;;;;;-0.08;37.67;90707.03;4972170;28;20031;-78
2023/01/19 03:49:50;;;;;;;1.77;1.10;;;;;;;-0.05;37.50;90698.78;4971872;28;20039;-78
2023/01/19 03:52:16;;;;;;;1.92;1.30;;;;;;;-0.06;38.23;90692.09;4972487;28;20047;-78
2023/01/19 03:54:42;;;;;;;1.95;1.30;;;;;;;-0.18;38.28;90708.88;4970518;28;20050;-79
2023/01/19 03:57:08;;;;;;;2.63;1.58;;;;;;;-0.34;38.92;90706.38;4970858;28;20031;-77
2023/01/19 03:59:35;;;;;;;2.58;1.40;;;;;;;-0.31;38.24;90711.00;4958498;28;20031;-79
2023/01/19 04:02:00;;;;;;;2.40;1.42;;;;;;;-0.37;39.36;90706.13;4952192;29;20027;-77
2023/01/19 04:04:26;;;;;;;2.13;1.40;;;;;;;-0.39;38.98;90703.81;4968338;28;20039;-78
2023/01/19 04:06:51;;;;;;;2.67;1.40;;;;;;;-0.45;38.50;90704.84;4971207;28;20094;-78
2023/01/19 04:09:17;;;;;;;2.58;1.40;;;;;;;-0.46;38.89;90718.75;4972199;28;20141;-77
2023/01/19 04:11:42;;;;;;;2.22;1.27;;;;;;;-0.25;37.96;90709.94;4971394;28;20031;-78
2023/01/19 04:14:08;;;;;;;2.30;1.40;;;;;;;-0.34;38.64;90716.66;4971399;28;20421;-78
2023/01/19 04:16:34;;;;;;;3.35;1.52;;;;;;;-0.42;38.79;90715.41;4972171;28;20505;-78
2023/01/19 04:18:59;;;;;;;2.42;1.60;;;;;;;-0.40;38.39;90727.25;4966791;28;20070;-78
2023/01/19 04:21:25;;;;;;;2.17;1.30;;;;;;;-0.33;38.16;90718.19;4963864;28;20509;-78
2023/01/19 04:23:53;;;;;;;2.20;1.45;;;;;;;-0.32;36.77;90724.88;4970492;28;20405;-78
2023/01/19 04:26:19;;;;;;;1.90;1.30;;;;;;;-0.25;37.06;90725.38;4971672;28;20485;-78
2023/01/19 04:28:45;;;;;;;2.83;1.58;;;;;;;-0.32;38.64;90724.88;4970205;28;20057;-77
2023/01/19 04:31:11;;;;;;;2.40;1.40;;;;;;;-0.41;38.93;90726.44;4952842;28;20070;-79
2023/01/19 04:33:36;;;;;;;2.83;1.40;;;;;;;-0.35;36.33;90727.22;4965309;28;20662;-77
2023/01/19 04:36:02;;;;;;;1.73;1.15;;;;;;;-0.31;37.29;90726.44;4970367;28;20042;-78
2023/01/19 04:38:28;;;;;;;2.00;1.33;;;;;;;-0.18;37.17;90724.31;4954717;28;20048;-79
2023/01/19 04:40:54;;;;;;;1.65;1.20;;;;;;;-0.32;37.53;90722.28;4971359;28;20125;-79
2023/01/19 04:43:21;;;;;;;2.08;1.42;;;;;;;-0.25;37.88;90730.53;4971213;28;20055;-78
2023/01/19 04:45:48;;;;;;;2.88;1.30;;;;;;;-0.38;38.25;90725.94;4971717;28;20469;-79
2023/01/19 04:48:14;;;;;;;3.50;1.60;;;;;;;-0.41;38.45;90729.03;4971711;28;20149;-78
2023/01/19 04:50:40;;;;;;;2.55;1.50;;;;;;;-0.27;37.81;90722.31;4970009;28;20113;-78
2023/01/19 04:53:07;;;;;;;2.33;1.50;;;;;;;-0.39;38.48;90724.38;4971172;28;20042;-78
2023/01/19 04:55:32;;;;;;;2.75;1.33;;;;;;;-0.41;37.62;90721.31;4970379;28;20039;-78
2023/01/19 04:57:58;;;;;;;1.67;1.27;;;;;;;-0.32;38.16;90737.72;4953766;28;20038;-78
2023/01/19 05:00:25;;;;;;;5.22;1.42;;;;;;;-0.33;37.99;90743.16;4969635;28;20042;-78
2023/01/19 05:02:51;;;;;;;2.63;1.35;;;;;;;-0.26;35.60;90739.25;4971699;28;20027;-77
2023/01/19 05:05:17;;;;;;;1.73;1.13;;;;;;;-0.34;36.94;90733.88;4970590;28;20047;-77
2023/01/19 05:07:43;;;;;;;3.95;1.42;;;;;;;-0.38;37.41;90750.84;4970537;28;20520;-78
2023/01/19 05:10:09;;;;;;;2.10;1.30;;;;;;;-0.34;36.31;90749.31;4972104;28;20560;-80
2023/01/19 05:12:35;;;;;;;1.92;1.38;;;;;;;-0.34;36.36;90744.94;4971679;28;20039;-78
2023/01/19 05:15:01;;;;;;;1.98;1.30;;;;;;;-0.40;35.93;90756.28;4971585;28;20046;-78
2023/01/19 05:17:27;;;;;;;2.40;1.40;;;;;;;-0.28;36.93;90751.59;4971227;28;20031;-79
2023/01/19 05:19:52;;;;;;;1.60;0.98;;;;;;;-0.31;37.32;90761.66;4971283;28;20039;-78
2023/01/19 05:22:18;;;;;;;3.53;1.52;;;;;;;-0.23;36.06;90769.59;4985837;28;20046;-78
2023/01/19 05:24:43;;;;;;;1.45;1.17;;;;;;;-0.28;36.18;90764.47;4979754;28;20034;-78
2023/01/19 05:27:09;;;;;;;1.90;1.27;;;;;;;-0.36;36.34;90775.31;4976101;28;20043;-78
2023/01/19 05:29:35;;;;;;;2.47;1.50;;;;;;;-0.31;36.09;90783.00;4969598;28;20034;-78
2023/01/19 05:32:00;;;;;;;6.50;1.60;;;;;;;-0.43;36.77;90783.28;4970165;28;20045;-77
2023/01/19 05:34:26;;;;;;;1.90;1.30;;;;;;;-0.50;37.49;90779.44;4973045;28;20121;-78
2023/01/19 05:36:52;;;;;;;3.47;1.42;;;;;;;-0.44;36.43;90788.69;4969545;28;20468;-77
2023/01/19 05:39:18;;;;;;;2.25;1.42;;;;;;;-0.53;36.00;90785.09;4967000;28;20046;-78
2023/01/19 05:41:44;;;;;;;1.40;1.20;;;;;;;-0.50;36.52;90787.91;4968355;28;20035;-78
2023/01/19 05:44:10;;;;;;;1.75;1.35;;;;;;;-0.32;35.45;90791.72;4970628;28;20133;-79
2023/01/19 05:46:36;;;;;;;2.35;1.40;;;;;;;-0.36;35.73;90785.59;4968629;28;20047;-82
2023/01/19 05:49:03;;;;;;;2.67;1.35;;;;;;;-0.47;36.57;90794.34;4967617;28;20178;-77
2023/01/19 05:51:34;;;;;;;2.65;1.50;;;;;;;-0.53;36.77;90792.81;4968676;28;20051;-77
2023/01/19 05:54:06;;;;;;;3.60;1.88;;;;;;;-0.43;36.19;90783.28;4967227;28;20058;-77
2023/01/19 05:56:34;;;;;;;3.03;1.50;;;;;;;-0.33;34.59;90779.91;4967577;28;20042;-77
2023/01/19 05:59:00;;;;;;;1.40;1.13;;;;;;;-0.32;34.50;90794.28;4964390;28;20038;-78
2023/01/19 06:01:26;;;;;;;1.92;1.30;;;;;;;-0.39;35.49;90791.22;4970061;28;20390;-77
2023/01/19 06:03:51;;;;;;;1.92;1.30;;;;;;;-0.30;34.22;90797.38;4976382;28;20097;-78
2023/01/19 06:06:17;;;;;;;2.33;1.42;;;;;;;-0.26;35.27;90790.69;4973739;28;20105;-77
2023/01/19 06:08:43;;;;;;;6.47;1.38;;;;;;;-0.34;35.41;90798.94;4967381;28;20394;-75
2023/01/19 06:11:09;;;;;;;2.45;1.48;;;;;;;-0.36;35.82;90806.16;4970094;28;20042;-77
2023/01/19 06:13:35;;;;;;;1.98;1.50;;;;;;;-0.18;35.36;90801.47;4970076;28;20046;-77
2023/01/19 06:16:02;;;;;;;1.45;1.20;;;;;;;-0.07;35.11;90798.63;4971224;28;20042;-77
2023/01/19 06:18:28;;;;;;;6.85;1.98;;;;;;;-0.29;36.03;90809.22;4970794;28;20045;-76
2023/01/19 06:20:57;;;;;;;5.35;1.50;;;;;;;-0.34;34.22;90819.50;4971961;28;20181;-77
2023/01/19 06:23:24;;;;;;;1.80;1.20;;;;;;;-0.35;34.39;90805.09;4970140;28;20035;-77
2023/01/19 06:25:50;;;;;;;6.40;1.70;;;;;;;-0.44;34.10;90806.69;4968791;28;20039;-77
2023/01/19 06:28:16;;;;;;;2.28;1.30;;;;;;;-0.41;35.74;90808.72;4970362;28;20105;-77
2023/01/19 06:30:42;;;;;;;2.67;1.50;;;;;;;-0.44;34.68;90820.28;4968819;28;20050;-77
2023/01/19 06:33:08;;;;;;;1.60;1.20;;;;;;;-0.37;33.79;90820.03;4970567;28;20085;-76
2023/01/19 06:35:34;;;;;;;3.35;1.70;;;;;;;-0.35;34.52;90827.50;4973649;28;20088;-78
2023/01/19 06:38:00;;;;;;;2.28;1.35;;;;;;;-0.09;33.12;90820.47;4970267;28;20122;-76
2023/01/19 06:40:25;;;;;;;1.77;1.27;;;;;;;-0.14;35.04;90838.50;4972515;28;20056;-76
2023/01/19 06:42:51;;;;;;;3.97;1.40;;;;;;;-0.16;32.90;90856.00;4972115;28;20085;-76
2023/01/19 06:45:17;;;;;;;2.22;1.20;;;;;;;-0.14;32.82;90833.34;4974557;28;20035;-79
2023/01/19 06:47:46;;;;;;;2.28;1.40;;;;;;;-0.29;34.63;90844.47;4974812;28;20512;-76
2023/01/19 06:50:11;;;;;;;4.18;1.63;;;;;;;-0.42;34.28;90831.09;4971256;28;20055;-79
2023/01/19 06:52:41;;;;;;;1.70;1.20;;;;;;;-0.39;33.91;90845.22;4975343;28;20053;-80
2023/01/19 06:55:09;;;;;;;3.40;1.40;;;;;;;-0.34;32.74;90840.06;4968043;28;20042;-79
2023/01/19 06:57:37;;;;;;;2.25;1.40;;;;;;;-0.40;33.95;90835.22;4973468;28;20041;-79
2023/01/19 07:00:06;;;;;;;2.03;1.40;;;;;;;-0.44;31.77;90833.16;4973919;28;20061;-79
2023/01/19 07:02:36;;;;;;;1.08;0.98;;;;;;;-0.45;33.81;90838.53;4974211;28;20142;-79
2023/01/19 07:05:02;;;;;;;1.67;1.30;;;;;;;-0.47;33.85;90836.25;4974708;28;20126;-76
2023/01/19 07:07:27;;;;;;;2.03;1.30;;;;;;;-0.39;31.86;90860.66;4973092;28;20113;-79
2023/01/19 07:09:53;;;;;;;2.05;1.30;;;;;;;-0.41;33.89;90865.28;4957996;28;20506;-78
2023/01/19 07:12:18;;;;;;;2.17;1.27;;;;;;;-0.46;32.92;90858.34;4955006;28;20039;-78
2023/01/19 07:14:44;;;;;;;2.70;1.45;;;;;;;-0.50;34.28;90864.25;4956779;28;20086;-78
2023/01/19 07:17:11;;;;;;;2.83;1.45;;;;;;;-0.58;34.66;90865.56;4970725;28;20470;-78
2023/01/19 07:19:36;;;;;;;1.92;1.10;;;;;;;-0.53;33.88;90867.34;4973162;28;20544;-78
2023/01/19 07:22:02;;;;;;;2.50;1.40;;;;;;;-0.51;33.50;90867.88;4973225;28;20192;-78
2023/01/19 07:24:29;;;;;;;1.95;1.20;;;;;;;-0.43;33.35;90867.34;4971584;28;20106;-78
2023/01/19 07:26:55;;;;;;;2.47;1.33;;;;;;;-0.48;34.58;90872.50;4970985;28;20034;-78
2023/01/19 07:29:21;;;;;;;2.38;1.33;;;;;;;-0.35;33.17;90869.41;4973084;28;20054;-78
2023/01/19 07:31:47;;;;;;;2.92;1.38;;;;;;;-0.43;33.06;90865.56;4973066;28;20034;-76
2023/01/19 07:34:14;;;;;;;2.10;1.40;;;;;;;-0.51;33.82;90880.72;4973328;28;20043;-78
2023/01/19 07:36:39;;;;;;;1.80;1.40;;;;;;;-0.44;32.48;90870.94;4972704;28;20588;-78
2023/01/19 07:39:05;;;;;;;2.13;1.30;;;;;;;-0.54;33.50;90892.28;4961014;28;20126;-78
2023/01/19 07:41:31;;;;;;;2.58;1.30;;;;;;;-0.52;34.17;90874.81;4959717;28;20552;-78
2023/01/19 07:43:56;;;;;;;0.95;0.90;;;;;;;-0.27;32.59;90876.59;4936274;29;20035;-78
2023/01/19 07:46:22;;;;;;;2.85;1.50;;;;;;;-0.35;32.27;90877.09;4953556;28;20511;-79
2023/01/19 07:48:48;;;;;;;1.83;1.15;;;;;;;-0.36;32.81;90888.44;4952432;28;20035;-78
2023/01/19 07:51:17;;;;;;;2.13;1.48;;;;;;;-0.43;33.45;90898.97;4971847;28;20051;-78
2023/01/19 07:53:44;;;;;;;1.33;1.20;;;;;;;-0.27;30.75;90876.59;4955893;28;20061;-78
2023/01/19 07:56:10;;;;;;;1.65;1.20;;;;;;;-0.30;32.60;90884.81;4961498;28;20446;-78
2023/01/19 07:58:36;;;;;;;1.67;1.23;;;;;;;-0.17;31.93;90882.75;4967091;28;20089;-78
2023/01/19 08:01:09;;;;;;;2.13;1.40;;;;;;;-0.24;31.76;90901.78;4953165;28;20062;-78
2023/01/19 08:03:35;;;;;;;3.30;1.40;;;;;;;-0.26;31.81;90903.06;4968123;28;20027;-78
2023/01/19 08:06:01;;;;;;;2.28;1.40;;;;;;;-0.19;30.83;90913.09;4952817;28;20566;-78
2023/01/19 08:08:28;;;;;;;2.75;1.55;;;;;;;-0.18;30.85;90907.72;4961891;28;20042;-78
2023/01/19 08:10:54;;;;;;;3.53;1.80;;;;;;;-0.30;33.16;90927.75;4969771;28;20108;-78
2023/01/19 08:13:19;;;;;;;3.42;1.85;;;;;;;-0.17;32.80;90923.91;4972655;28;20494;-78
2023/01/19 08:15:52;;;;;;;3.50;1.85;;;;;;;-0.33;33.51;90934.19;4987889;28;20127;-77
2023/01/19 08:18:18;;;;;;;3.05;1.40;;;;;;;0.02;31.34;90930.03;4971618;28;20031;-79
2023/01/19 08:20:44;;;;;;;3.45;1.63;;;;;;;0.10;30.90;90944.97;4972450;28;20041;-79
2023/01/19 08:23:11;;;;;;;4.70;1.70;;;;;;;-0.06;32.00;90944.22;4971148;28;20042;-78
2023/01/19 08:25:41;;;;;;;2.00;1.30;;;;;;;-0.15;32.14;90952.72;4971325;28;20027;-78
2023/01/19 08:28:08;;;;;;;4.10;2.08;;;;;;;-0.07;31.10;90941.88;4971668;28;20034;-78
2023/01/19 08:30:34;;;;;;;3.22;1.58;;;;;;;0.01;32.20;90953.47;4971692;28;20038;-78
2023/01/19 08:33:03;;;;;;;3.65;1.90;;;;;;;-0.09;32.34;90949.09;4971480;28;20051;-78
2023/01/19 08:35:30;;;;;;;2.35;1.33;;;;;;;-0.07;31.97;90965.84;4972433;28;20038;-78
2023/01/19 08:37:59;;;;;;;1.63;1.30;;;;;;;-0.09;31.13;90970.47;4970785;28;20031;-78
2023/01/19 08:40:27;;;;;;;2.05;1.33;;;;;;;0.03;30.15;90967.63;4967520;28;20023;-78
2023/01/19 08:42:58;;;;;;;2.15;1.33;;;;;;;-0.10;31.32;90968.13;4951578;29;20137;-78
2023/01/19 08:45:23;;;;;;;3.65;1.50;;;;;;;-0.16;31.76;90982.03;4951471;28;20421;-78
2023/01/19 08:47:49;;;;;;;8.35;1.40;;;;;;;-0.09;31.25;90975.59;4951331;28;20053;-78
2023/01/19 08:50:15;;;;;;;1.17;0.98;;;;;;;-0.01;29.44;90990.50;4949714;29;20043;-77
2023/01/19 08:52:40;;;;;;;1.77;1.20;;;;;;;-0.05;31.33;90991.28;4952634;28;20552;-78
2023/01/19 08:55:07;;;;;;;3.45;1.77;;;;;;;-0.01;31.70;91000.03;4956200;28;20054;-78
2023/01/19 08:57:32;;;;;;;4.55;1.30;;;;;;;-0.06;30.57;91005.94;4971885;28;20089;-78
2023/01/19 08:59:58;;;;;;;1.88;1.33;;;;;;;-0.01;29.34;91015.47;4956470;28;20486;-78
2023/01/19 09:02:24;;;;;;;3.10;1.38;;;;;;;0.15;30.39;91011.84;4969856;28;20066;-78
2023/01/19 09:04:50;;;;;;;1.88;1.35;;;;;;;0.06;30.00;91023.69;4971799;28;20077;-79
2023/01/19 09:07:17;;;;;;;2.90;1.50;;;;;;;-0.03;31.12;91025.25;4971525;28;20078;-76
2023/01/19 09:09:42;;;;;;;2.92;1.58;;;;;;;0.15;29.95;91024.72;4957611;28;20470;-79
2023/01/19 09:12:08;;;;;;;0.80;0.80;;;;;;;0.06;31.43;91028.84;4970235;28;20051;-78
2023/01/19 09:14:33;;;;;;;2.60;1.45;;;;;;;-0.02;30.70;91029.38;4971430;28;20061;-78
2023/01/19 09:16:59;;;;;;;1.45;1.20;;;;;;;0.10;29.91;91014.44;4970069;28;20059;-78
2023/01/19 09:19:25;;;;;;;2.97;1.55;;;;;;;0.17;30.49;91040.69;4968747;28;20054;-78
2023/01/19 09:21:53;;;;;;;9.18;3.17;;;;;;;0.10;30.42;91034.25;4971186;28;20047;-78
2023/01/19 09:24:18;;;;;;;2.33;1.48;;;;;;;-0.02;29.77;91040.44;4970839;28;20035;-78
2023/01/19 09:26:44;;;;;;;2.00;1.30;;;;;;;0.19;30.16;91046.34;4955677;28;20054;-78
2023/01/19 09:29:09;;;;;;;1.85;1.30;;;;;;;0.09;29.61;91040.41;4952162;28;20043;-78
2023/01/19 09:31:35;;;;;;;1.63;1.10;;;;;;;0.19;28.79;91059.22;4952315;28;20032;-78
2023/01/19 09:34:01;;;;;;;1.73;1.10;;;;;;;0.30;29.00;91065.13;4966738;28;20051;-78
2023/01/19 09:36:27;;;;;;;1.80;1.33;;;;;;;0.10;28.92;91065.91;4971140;28;20129;-79
2023/01/19 09:38:52;;;;;;;1.90;1.23;;;;;;;0.08;29.22;91062.03;4957988;28;20038;-78
2023/01/19 09:41:20;;;;;;;1.38;1.10;;;;;;;0.07;29.00;91076.72;4947391;28;20528;-78
2023/01/19 09:43:53;;;;;;;1.90;1.30;;;;;;;0.10;28.99;91072.84;4971374;28;20340;-78
2023/01/19 09:46:38;;;;;;;2.17;1.30;;;;;;;0.12;30.78;91068.22;4938399;29;20031;-79
2023/01/19 09:49:14;;;;;;;1.92;1.10;;;;;;;0.15;28.70;91083.91;4955622;28;20047;-78
2023/01/19 09:51:45;;;;;;;2.30;1.38;;;;;;;0.06;30.46;91075.16;4955527;28;20469;-78
2023/01/19 09:54:15;;;;;;;2.10;1.25;;;;;;;0.26;29.98;91078.78;4963384;28;20035;-79
2023/01/19 09:56:46;;;;;;;3.50;1.50;;;;;;;0.27;30.34;91091.41;4972413;28;20114;-78
2023/01/19 09:59:21;;;;;;;1.90;1.33;;;;;;;0.19;30.20;91094.47;4964120;28;20034;-78
2023/01/19 10:01:52;;;;;;;2.88;1.30;;;;;;;0.17;29.43;91099.09;4955410;28;20039;-78
2023/01/19 10:04:21;;;;;;;2.47;1.23;;;;;;;0.11;30.01;91088.03;4959750;28;20070;-79
2023/01/19 10:06:47;;;;;;;2.08;1.25;;;;;;;0.09;29.54;91082.38;4973573;28;20393;-79
2023/01/19 10:09:13;;;;;;;1.25;1.00;;;;;;;0.18;30.21;91095.50;4964451;28;20227;-78
2023/01/19 10:11:52;;;;;;;3.33;1.50;;;;;;;0.18;30.04;91098.84;4955552;28;20640;-78
2023/01/19 10:14:44;;;;;;;3.20;1.45;;;;;;;0.17;30.53;91084.44;4939839;28;20130;-78
2023/01/19 10:17:45;;;;;;;1.48;1.20;;;;;;;0.36;30.15;91089.84;4974589;28;20034;-78
2023/01/19 10:20:21;;;;;;;2.10;1.40;;;;;;;0.32;29.50;91080.31;4954770;28;20448;-78
2023/01/19 10:22:48;;;;;;;2.50;1.30;;;;;;;0.22;30.03;91088.81;4954150;29;20051;-77
2023/01/19 10:25:22;;;;;;;1.98;1.20;;;;;;;0.28;30.35;91080.06;4960917;28;20066;-79
2023/01/19 10:27:48;;;;;;;1.95;1.35;;;;;;;0.36;29.82;91083.91;4974424;28;20078;-78
2023/01/19 10:30:22;;;;;;;1.75;1.30;;;;;;;0.36;31.03;91095.00;4973063;28;20118;-78
2023/01/19 10:32:49;;;;;;;5.55;2.80;;;;;;;0.35;31.87;91087.53;4974578;28;20031;-78
2023/01/19 10:35:25;;;;;;;5.05;1.98;;;;;;;0.53;30.58;91087.00;4974227;28;20026;-78
2023/01/19 10:37:55;;;;;;;14.30;4.10;;;;;;;0.52;31.14;91103.50;4961005;28;20047;-79
2023/01/19 10:40:33;;;;;;;2.25;1.30;;;;;;;0.53;29.72;91084.44;4972395;28;20034;-78
2023/01/19 10:42:59;;;;;;;1.55;1.13;;;;;;;0.57;29.68;91089.84;4974330;28;20747;-79
2023/01/19 10:45:28;;;;;;;2.35;1.30;;;;;;;0.48;30.24;91084.44;4957178;28;20117;-78
2023/01/19 10:47:59;;;;;;;2.78;1.50;;;;;;;0.46;30.68;91076.19;4973286;28;20039;-78
2023/01/19 10:50:32;;;;;;;3.10;1.52;;;;;;;0.53;31.10;91089.56;4956139;28;20055;-78
2023/01/19 10:53:00;;;;;;;1.60;1.25;;;;;;;0.58;30.54;91079.25;4973051;28;20038;-78
2023/01/19 10:55:36;;;;;;;2.60;1.38;;;;;;;0.60;29.40;91089.31;4958481;28;20023;-78
2023/01/19 10:58:04;;;;;;;5.13;2.40;;;;;;;0.64;30.70;91087.00;4967376;28;20065;-78
2023/01/19 11:00:31;;;;;;;3.60;1.65;;;;;;;0.90;29.17;91078.22;4973906;28;20137;-78
2023/01/19 11:02:57;;;;;;;1.95;1.30;;;;;;;0.82;29.41;91071.00;4973836;28;20038;-78
2023/01/19 11:05:26;;;;;;;1.77;1.25;;;;;;;0.86;29.68;91084.91;4973730;28;20097;-78
2023/01/19 11:07:51;;;;;;;2.60;1.48;;;;;;;0.78;28.26;91093.16;4972856;28;20489;-78
2023/01/19 11:10:27;;;;;;;3.35;1.60;;;;;;;1.02;29.63;91086.41;4956658;28;20039;-77
2023/01/19 11:12:56;;;;;;;2.22;1.50;;;;;;;0.86;29.51;91077.19;4969297;28;20079;-77
2023/01/19 11:15:39;;;;;;;2.08;1.20;;;;;;;0.80;29.00;91078.97;4952878;29;20050;-77
2023/01/19 11:18:06;;;;;;;2.95;1.50;;;;;;;0.78;28.84;91086.19;4952776;29;20118;-77
2023/01/19 11:20:49;;;;;;;2.20;1.30;;;;;;;0.86;28.38;91074.59;4955721;28;20027;-77
2023/01/19 11:23:18;;;;;;;1.83;1.10;;;;;;;0.88;29.51;91077.69;4963334;28;20086;-77
2023/01/19 11:25:49;;;;;;;2.25;1.38;;;;;;;0.92;29.61;91075.34;4954991;28;20059;-78
2023/01/19 11:28:30;;;;;;;5.30;2.60;;;;;;;1.13;28.89;91074.28;4954952;28;20039;-77
2023/01/19 11:31:17;;;;;;;2.67;1.27;;;;;;;0.96;29.05;91066.06;4973318;28;20711;-77
2023/01/19 11:33:46;;;;;;;2.58;1.40;;;;;;;1.02;29.32;91063.22;4971615;28;20043;-77
2023/01/19 11:36:23;;;;;;;1.50;1.10;;;;;;;0.94;28.36;91068.91;4972811;28;20532;-78
2023/01/19 11:38:55;;;;;;;3.85;1.75;;;;;;;0.95;28.93;91073.03;4971939;28;20042;-78
2023/01/19 11:41:34;;;;;;;5.30;1.80;;;;;;;1.08;29.03;91078.66;4970097;28;20031;-77
2023/01/19 11:44:18;;;;;;;1.83;1.10;;;;;;;1.19;28.82;91072.44;4970562;28;20252;-78
2023/01/19 11:46:48;;;;;;;2.83;1.33;;;;;;;1.14;30.34;91069.88;4971642;28;20042;-78
2023/01/19 11:49:25;;;;;;;1.67;1.20;;;;;;;1.09;28.48;91070.66;4972862;28;20031;-77
2023/01/19 11:52:05;;;;;;;1.77;1.02;;;;;;;1.04;29.03;91068.13;4972187;28;20047;-78
2023/01/19 11:54:39;;;;;;;2.15;1.40;;;;;;;1.06;29.37;91067.84;4971097;28;20042;-78